sensor_id;sensor_type;location;lat;lon;timestamp;pressure;altitude;pressure_sealevel;temperature;humidity
56038;BME280;41907;47.848;9.000;2023-01-29T00:01:11;96602.84;;;-0.57;100.00
56038;BME280;41907;47.848;9.000;2023-01-29T00:03:36;96607.84;;;-0.56;100.00
56038;BME280;41907;47.848;9.000;2023-01-29T00:06:06;96603.63;;;-0.57;100.00
56038;BME280;41907;47.848;9.000;2023-01-29T00:08:33;96609.81;;;-0.51;100.00
56038;BME280;41907;47.848;9.000;2023-01-29T00:11:00;96604.19;;;-0.55;100.00
56038;BME280;41907;47.848;9.000;2023-01-29T00:13:26;96605.38;;;-0.51;100.00
56038;BME280;41907;47.848;9.000;2023-01-29T00:15:53;96601.38;;;-0.53;100.00
56038;BME280;41907;47.848;9.000;2023-01-29T00:18:20;96600.16;;;-0.51;100.00
56038;BME280;41907;47.848;9.000;2023-01-29T00:20:45;96610.03;;;-0.53;100.00
56038;BME280;41907;47.848;9.000;2023-01-29T00:23:10;96597.16;;;-0.54;100.00
56038;BME280;41907;47.848;9.000;2023-01-29T00:25:36;96600.56;;;-0.54;100.00
56038;BME280;41907;47.848;9.000;2023-01-29T00:28:01;96596.00;;;-0.58;100.00
56038;BME280;41907;47.848;9.000;2023-01-29T00:30:26;96589.25;;;-0.48;100.00
56038;BME280;41907;47.848;9.000;2023-01-29T00:32:52;96591.69;;;-0.53;100.00
56038;BME280;41907;47.848;9.000;2023-01-29T00:35:18;96595.50;;;-0.49;100.00
56038;BME280;41907;47.848;9.000;2023-01-29T00:37:43;96591.09;;;-0.55;100.00
56038;BME280;41907;47.848;9.000;2023-01-29T00:40:09;96585.66;;;-0.53;100.00
56038;BME280;41907;47.848;9.000;2023-01-29T00:42:34;96591.06;;;-0.48;100.00
56038;BME280;41907;47.848;9.000;2023-01-29T00:45:18;96589.59;;;-0.44;100.00
56038;BME280;41907;47.848;9.000;2023-01-29T00:47:43;96592.44;;;-0.46;100.00
56038;BME280;41907;47.848;9.000;2023-01-29T00:50:10;96600.00;;;-0.38;100.00
56038;BME280;41907;47.848;9.000;2023-01-29T00:52:36;96601.25;;;-0.40;100.00
56038;BME280;41907;47.848;9.000;2023-01-29T00:55:02;96609.91;;;-0.40;100.00
56038;BME280;41907;47.848;9.000;2023-01-29T00:57:32;96607.66;;;-0.36;100.00
56038;BME280;41907;47.848;9.000;2023-01-29T00:59:58;96608.44;;;-0.35;100.00
56038;BME280;41907;47.848;9.000;2023-01-29T01:02:23;96618.22;;;-0.24;100.00
56038;BME280;41907;47.848;9.000;2023-01-29T01:05:08;96608.84;;;-0.32;100.00
56038;BME280;41907;47.848;9.000;2023-01-29T01:07:38;96607.00;;;-0.31;100.00
56038;BME280;41907;47.848;9.000;2023-01-29T01:10:04;96618.09;;;-0.29;100.00
56038;BME280;41907;47.848;9.000;2023-01-29T01:13:03;96614.16;;;-0.20;100.00
56038;BME280;41907;47.848;9.000;2023-01-29T01:15:37;96617.22;;;-0.23;100.00
56038;BME280;41907;47.848;9.000;2023-01-29T01:18:03;96614.81;;;-0.25;100.00
56038;BME280;41907;47.848;9.000;2023-01-29T01:20:31;96615.09;;;-0.33;100.00
56038;BME280;41907;47.848;9.000;2023-01-29T01:22:57;96605.19;;;-0.31;100.00
56038;BME280;41907;47.848;9.000;2023-01-29T01:25:24;96608.44;;;-0.35;100.00
56038;BME280;41907;47.848;9.000;2023-01-29T01:27:54;96612.19;;;-0.25;100.00
56038;BME280;41907;47.848;9.000;2023-01-29T01:30:19;96601.47;;;-0.23;100.00
56038;BME280;41907;47.848;9.000;2023-01-29T01:32:45;96603.50;;;-0.25;100.00
56038;BME280;41907;47.848;9.000;2023-01-29T01:35:11;96610.34;;;-0.24;100.00
56038;BME280;41907;47.848;9.000;2023-01-29T01:37:37;96602.78;;;-0.32;100.00
56038;BME280;41907;47.848;9.000;2023-01-29T01:40:10;96617.13;;;-0.35;100.00
56038;BME280;41907;47.848;9.000;2023-01-29T01:42:42;96621.56;;;-0.35;100.00
56038;BME280;41907;47.848;9.000;2023-01-29T01:45:18;96613.91;;;-0.37;100.00
56038;BME280;41907;47.848;9.000;2023-01-29T01:48:32;96617.31;;;-0.37;100.00
56038;BME280;41907;47.848;9.000;2023-01-29T01:50:47;96632.03;;;-0.35;100.00
56038;BME280;41907;47.848;9.000;2023-01-29T01:53:18;96627.00;;;-0.37;100.00
56038;BME280;41907;47.848;9.000;2023-01-29T01:55:49;96630.22;;;-0.35;100.00
56038;BME280;41907;47.848;9.000;2023-01-29T01:58:50;96626.22;;;-0.38;100.00
56038;BME280;41907;47.848;9.000;2023-01-29T02:01:15;96621.56;;;-0.35;100.00
56038;BME280;41907;47.848;9.000;2023-01-29T02:04:03;96627.97;;;-0.31;100.00
56038;BME280;41907;47.848;9.000;2023-01-29T02:06:50;96621.56;;;-0.35;100.00
56038;BME280;41907;47.848;9.000;2023-01-29T02:09:42;96624.28;;;-0.24;100.00
56038;BME280;41907;47.848;9.000;2023-01-29T02:12:11;96631.72;;;-0.21;100.00
56038;BME280;41907;47.848;9.000;2023-01-29T02:14:38;96630.31;;;-0.23;100.00
56038;BME280;41907;47.848;9.000;2023-01-29T02:17:05;96626.38;;;-0.14;100.00
56038;BME280;41907;47.848;9.000;2023-01-29T02:19:46;96619.69;;;-0.10;100.00
56038;BME280;41907;47.848;9.000;2023-01-29T02:25:11;96619.69;;;-0.10;100.00
56038;BME280;41907;47.848;9.000;2023-01-29T02:30:43;96620.41;;;-0.21;100.00
56038;BME280;41907;47.848;9.000;2023-01-29T02:33:47;96617.72;;;-0.15;100.00
56038;BME280;41907;47.848;9.000;2023-01-29T02:41:30;96620.56;;;0.02;100.00
56038;BME280;41907;47.848;9.000;2023-01-29T02:46:29;96618.69;;;0.09;100.00
56038;BME280;41907;47.848;9.000;2023-01-29T02:49:11;96626.56;;;0.09;100.00
56038;BME280;41907;47.848;9.000;2023-01-29T02:51:57;96625.06;;;0.13;100.00
56038;BME280;41907;47.848;9.000;2023-01-29T02:54:32;96624.78;;;0.03;100.00
56038;BME280;41907;47.848;9.000;2023-01-29T02:57:25;96624.88;;;-0.04;100.00
56038;BME280;41907;47.848;9.000;2023-01-29T02:59:58;96626.69;;;-0.04;100.00
56038;BME280;41907;47.848;9.000;2023-01-29T03:02:48;96622.75;;;-0.13;100.00
56038;BME280;41907;47.848;9.000;2023-01-29T03:05:23;96623.25;;;-0.23;100.00
56038;BME280;41907;47.848;9.000;2023-01-29T03:07:54;96623.09;;;-0.28;100.00
56038;BME280;41907;47.848;9.000;2023-01-29T03:12:54;96618.72;;;-0.34;100.00
56038;BME280;41907;47.848;9.000;2023-01-29T03:15:42;96623.16;;;-0.34;100.00
56038;BME280;41907;47.848;9.000;2023-01-29T03:18:15;96623.09;;;-0.28;100.00
56038;BME280;41907;47.848;9.000;2023-01-29T03:20:46;96617.63;;;-0.26;100.00
56038;BME280;41907;47.848;9.000;2023-01-29T03:23:18;96622.94;;;-0.33;100.00
56038;BME280;41907;47.848;9.000;2023-01-29T03:25:50;96625.28;;;-0.25;100.00
56038;BME280;41907;47.848;9.000;2023-01-29T03:28:38;96617.06;;;-0.28;100.00
56038;BME280;41907;47.848;9.000;2023-01-29T03:31:25;96604.00;;;-0.35;100.00
56038;BME280;41907;47.848;9.000;2023-01-29T03:34:15;96615.91;;;-0.32;100.00
56038;BME280;41907;47.848;9.000;2023-01-29T03:36:53;96617.00;;;-0.22;100.00
56038;BME280;41907;47.848;9.000;2023-01-29T03:39:21;96616.41;;;-0.24;100.00
56038;BME280;41907;47.848;9.000;2023-01-29T03:41:54;96620.25;;;-0.26;100.00
56038;BME280;41907;47.848;9.000;2023-01-29T03:44:23;96620.03;;;-0.25;100.00
56038;BME280;41907;47.848;9.000;2023-01-29T03:46:57;96618.81;;;-0.22;100.00
56038;BME280;41907;47.848;9.000;2023-01-29T03:52:15;96616.84;;;-0.27;100.00
56038;BME280;41907;47.848;9.000;2023-01-29T03:55:18;96616.63;;;-0.25;100.00
56038;BME280;41907;47.848;9.000;2023-01-29T04:01:01;96609.22;;;-0.28;100.00
56038;BME280;41907;47.848;9.000;2023-01-29T04:03:33;96612.03;;;-0.30;100.00
56038;BME280;41907;47.848;9.000;2023-01-29T04:06:14;96610.94;;;-0.41;100.00
56038;BME280;41907;47.848;9.000;2023-01-29T04:08:51;96609.13;;;-0.40;100.00
56038;BME280;41907;47.848;9.000;2023-01-29T04:11:21;96610.28;;;-0.36;100.00
56038;BME280;41907;47.848;9.000;2023-01-29T04:13:47;96607.94;;;-0.44;100.00
56038;BME280;41907;47.848;9.000;2023-01-29T04:16:35;96608.31;;;-0.41;100.00
56038;BME280;41907;47.848;9.000;2023-01-29T04:19:01;96601.19;;;-0.33;100.00
56038;BME280;41907;47.848;9.000;2023-01-29T04:21:27;96599.28;;;-0.26;100.00
56038;BME280;41907;47.848;9.000;2023-01-29T04:23:55;96600.53;;;-0.29;100.00
56038;BME280;41907;47.848;9.000;2023-01-29T04:26:36;96593.97;;;-0.38;100.00
56038;BME280;41907;47.848;9.000;2023-01-29T04:31:59;96595.44;;;-0.24;100.00
56038;BME280;41907;47.848;9.000;2023-01-29T04:34:35;96604.47;;;-0.38;100.00
56038;BME280;41907;47.848;9.000;2023-01-29T04:39:46;96598.63;;;-0.40;100.00
56038;BME280;41907;47.848;9.000;2023-01-29T04:58:25;96610.69;;;-0.57;100.00
56038;BME280;41907;47.848;9.000;2023-01-29T05:00:52;96610.09;;;-0.59;100.00
56038;BME280;41907;47.848;9.000;2023-01-29T05:03:20;96612.50;;;-0.58;100.00
56038;BME280;41907;47.848;9.000;2023-01-29T05:05:49;96605.47;;;-0.57;100.00
56038;BME280;41907;47.848;9.000;2023-01-29T05:08:18;96611.50;;;-0.57;100.00
56038;BME280;41907;47.848;9.000;2023-01-29T05:10:48;96619.19;;;-0.62;100.00
56038;BME280;41907;47.848;9.000;2023-01-29T05:13:14;96612.72;;;-0.59;100.00
56038;BME280;41907;47.848;9.000;2023-01-29T05:15:49;96607.63;;;-0.54;100.00
56038;BME280;41907;47.848;9.000;2023-01-29T05:18:16;96618.91;;;-0.54;100.00
56038;BME280;41907;47.848;9.000;2023-01-29T05:20:42;96625.63;;;-0.58;100.00
56038;BME280;41907;47.848;9.000;2023-01-29T05:23:18;96623.84;;;-0.64;100.00
56038;BME280;41907;47.848;9.000;2023-01-29T05:25:45;96635.72;;;-0.61;100.00
56038;BME280;41907;47.848;9.000;2023-01-29T05:28:11;96636.09;;;-0.58;100.00
56038;BME280;41907;47.848;9.000;2023-01-29T05:30:50;96632.88;;;-0.60;100.00
56038;BME280;41907;47.848;9.000;2023-01-29T05:33:22;96641.91;;;-0.56;100.00
56038;BME280;41907;47.848;9.000;2023-01-29T05:35:48;96642.44;;;-0.72;100.00
56038;BME280;41907;47.848;9.000;2023-01-29T05:38:14;96639.41;;;-0.69;100.00
56038;BME280;41907;47.848;9.000;2023-01-29T05:40:40;96639.19;;;-0.67;100.00
56038;BME280;41907;47.848;9.000;2023-01-29T05:43:16;96643.72;;;-0.56;100.00
56038;BME280;41907;47.848;9.000;2023-01-29T05:45:50;96640.53;;;-0.58;100.00
56038;BME280;41907;47.848;9.000;2023-01-29T05:48:16;96636.91;;;-0.57;100.00
56038;BME280;41907;47.848;9.000;2023-01-29T05:50:41;96638.41;;;-0.68;100.00
56038;BME280;41907;47.848;9.000;2023-01-29T05:53:08;96641.56;;;-0.66;100.00
56038;BME280;41907;47.848;9.000;2023-01-29T05:55:33;96642.78;;;-0.62;100.00
56038;BME280;41907;47.848;9.000;2023-01-29T05:57:58;96643.72;;;-0.56;100.00
56038;BME280;41907;47.848;9.000;2023-01-29T06:00:24;96645.38;;;-0.62;100.00
56038;BME280;41907;47.848;9.000;2023-01-29T06:02:49;96644.75;;;-0.57;100.00
56038;BME280;41907;47.848;9.000;2023-01-29T06:05:15;96635.78;;;-0.68;100.00
56038;BME280;41907;47.848;9.000;2023-01-29T06:07:40;96634.16;;;-0.69;100.00
56038;BME280;41907;47.848;9.000;2023-01-29T06:10:13;96642.03;;;-0.69;100.00
56038;BME280;41907;47.848;9.000;2023-01-29T06:12:40;96638.69;;;-0.83;100.00
56038;BME280;41907;47.848;9.000;2023-01-29T06:15:06;96642.88;;;-0.75;100.00
56038;BME280;41907;47.848;9.000;2023-01-29T06:17:32;96650.84;;;-0.63;100.00
56038;BME280;41907;47.848;9.000;2023-01-29T06:19:57;96652.66;;;-0.64;100.00
56038;BME280;41907;47.848;9.000;2023-01-29T06:22:22;96658.91;;;-0.65;100.00
56038;BME280;41907;47.848;9.000;2023-01-29T06:24:48;96653.34;;;-0.75;100.00
56038;BME280;41907;47.848;9.000;2023-01-29T06:27:13;96662.00;;;-0.75;100.00
56038;BME280;41907;47.848;9.000;2023-01-29T06:29:38;96670.03;;;-0.69;100.00
56038;BME280;41907;47.848;9.000;2023-01-29T06:32:04;96673.88;;;-0.72;100.00
56038;BME280;41907;47.848;9.000;2023-01-29T06:34:29;96672.88;;;-0.71;100.00
56038;BME280;41907;47.848;9.000;2023-01-29T06:36:54;96672.66;;;-0.69;100.00
56038;BME280;41907;47.848;9.000;2023-01-29T06:39:20;96665.41;;;-0.67;100.00
56038;BME280;41907;47.848;9.000;2023-01-29T06:41:45;96661.31;;;-0.63;100.00
56038;BME280;41907;47.848;9.000;2023-01-29T06:44:10;96666.56;;;-0.63;100.00
56038;BME280;41907;47.848;9.000;2023-01-29T06:46:36;96665.66;;;-0.76;100.00
56038;BME280;41907;47.848;9.000;2023-01-29T06:49:01;96661.78;;;-0.73;100.00
56038;BME280;41907;47.848;9.000;2023-01-29T06:51:26;96656.88;;;-0.88;100.00
56038;BME280;41907;47.848;9.000;2023-01-29T06:53:52;96639.81;;;-0.97;100.00
56038;BME280;41907;47.848;9.000;2023-01-29T06:56:20;96644.06;;;-0.96;100.00
56038;BME280;41907;47.848;9.000;2023-01-29T06:58:45;96643.19;;;-0.90;100.00
56038;BME280;41907;47.848;9.000;2023-01-29T07:01:11;96639.94;;;-0.85;100.00
56038;BME280;41907;47.848;9.000;2023-01-29T07:03:37;96642.56;;;-0.85;100.00
56038;BME280;41907;47.848;9.000;2023-01-29T07:06:04;96645.00;;;-0.90;100.00
56038;BME280;41907;47.848;9.000;2023-01-29T07:08:29;96639.78;;;-0.90;100.00
56038;BME280;41907;47.848;9.000;2023-01-29T07:10:59;96641.75;;;-0.86;100.00
56038;BME280;41907;47.848;9.000;2023-01-29T07:13:24;96661.25;;;-0.82;100.00
56038;BME280;41907;47.848;9.000;2023-01-29T07:15:49;96654.25;;;-0.63;100.00
56038;BME280;41907;47.848;9.000;2023-01-29T07:18:15;96653.03;;;-0.60;100.00
56038;BME280;41907;47.848;9.000;2023-01-29T07:20:41;96652.28;;;-0.67;100.00
56038;BME280;41907;47.848;9.000;2023-01-29T07:23:11;96658.44;;;-0.80;100.00
56038;BME280;41907;47.848;9.000;2023-01-29T07:25:38;96659.97;;;-0.97;100.00
56038;BME280;41907;47.848;9.000;2023-01-29T07:28:04;96668.34;;;-1.20;100.00
56038;BME280;41907;47.848;9.000;2023-01-29T07:30:30;96676.19;;;-1.14;100.00
56038;BME280;41907;47.848;9.000;2023-01-29T07:33:00;96670.69;;;-1.05;100.00
56038;BME280;41907;47.848;9.000;2023-01-29T07:35:26;96679.03;;;-0.90;100.00
56038;BME280;41907;47.848;9.000;2023-01-29T07:37:51;96675.56;;;-0.84;100.00
56038;BME280;41907;47.848;9.000;2023-01-29T07:40:16;96678.53;;;-0.74;100.00
56038;BME280;41907;47.848;9.000;2023-01-29T07:42:42;96682.53;;;-0.71;100.00
56038;BME280;41907;47.848;9.000;2023-01-29T07:45:09;96678.25;;;-0.66;100.00
56038;BME280;41907;47.848;9.000;2023-01-29T07:47:34;96679.66;;;-0.63;100.00
56038;BME280;41907;47.848;9.000;2023-01-29T07:50:00;96684.25;;;-0.59;100.00
56038;BME280;41907;47.848;9.000;2023-01-29T07:52:25;96669.03;;;-0.68;100.00
56038;BME280;41907;47.848;9.000;2023-01-29T07:54:51;96666.75;;;-0.65;100.00
56038;BME280;41907;47.848;9.000;2023-01-29T07:57:16;96665.66;;;-0.76;100.00
56038;BME280;41907;47.848;9.000;2023-01-29T07:59:41;96668.00;;;-0.67;100.00
56038;BME280;41907;47.848;9.000;2023-01-29T08:02:08;96671.00;;;-0.64;100.00
56038;BME280;41907;47.848;9.000;2023-01-29T08:04:34;96672.81;;;-0.64;100.00
56038;BME280;41907;47.848;9.000;2023-01-29T08:06:59;96670.09;;;-0.51;100.00
56038;BME280;41907;47.848;9.000;2023-01-29T08:09:25;96670.78;;;-0.62;100.00
56038;BME280;41907;47.848;9.000;2023-01-29T08:11:50;96673.56;;;-0.57;100.00
56038;BME280;41907;47.848;9.000;2023-01-29T08:14:15;96673.78;;;-0.59;100.00
56038;BME280;41907;47.848;9.000;2023-01-29T08:16:41;96678.28;;;-0.41;100.00
56038;BME280;41907;47.848;9.000;2023-01-29T08:19:06;96666.50;;;-0.32;100.00
56038;BME280;41907;47.848;9.000;2023-01-29T08:21:31;96667.00;;;-0.23;99.83
56038;BME280;41907;47.848;9.000;2023-01-29T08:23:57;96667.53;;;-0.15;99.03
56038;BME280;41907;47.848;9.000;2023-01-29T08:26:22;96668.69;;;-0.29;98.61
56038;BME280;41907;47.848;9.000;2023-01-29T08:28:47;96676.31;;;-0.27;99.26
56038;BME280;41907;47.848;9.000;2023-01-29T08:31:17;96671.88;;;-0.27;99.61
56038;BME280;41907;47.848;9.000;2023-01-29T08:33:44;96687.91;;;-0.17;98.89
56038;BME280;41907;47.848;9.000;2023-01-29T08:36:10;96684.03;;;-0.32;99.39
56038;BME280;41907;47.848;9.000;2023-01-29T08:38:35;96680.63;;;-0.33;99.62
56038;BME280;41907;47.848;9.000;2023-01-29T08:41:01;96682.50;;;-0.40;99.38
56038;BME280;41907;47.848;9.000;2023-01-29T08:43:26;96685.91;;;-0.40;99.87
56038;BME280;41907;47.848;9.000;2023-01-29T08:45:52;96686.66;;;-0.32;99.05
56038;BME280;41907;47.848;9.000;2023-01-29T08:48:17;96683.94;;;-0.44;98.82
56038;BME280;41907;47.848;9.000;2023-01-29T08:50:42;96688.63;;;-0.28;97.88
56038;BME280;41907;47.848;9.000;2023-01-29T08:53:08;96688.41;;;-0.26;97.92
56038;BME280;41907;47.848;9.000;2023-01-29T08:55:35;96690.81;;;-0.25;98.31
56038;BME280;41907;47.848;9.000;2023-01-29T08:58:09;96688.13;;;-0.18;97.01
56038;BME280;41907;47.848;9.000;2023-01-29T09:00:35;96690.00;;;-0.01;97.10
56038;BME280;41907;47.848;9.000;2023-01-29T09:03:00;96694.28;;;-0.06;97.04
56038;BME280;41907;47.848;9.000;2023-01-29T09:05:27;96693.19;;;0.02;96.09
56038;BME280;41907;47.848;9.000;2023-01-29T09:07:53;96701.22;;;0.07;96.65
56038;BME280;41907;47.848;9.000;2023-01-29T09:10:20;96707.66;;;-0.14;96.87
56038;BME280;41907;47.848;9.000;2023-01-29T09:12:45;96706.56;;;-0.07;96.79
56038;BME280;41907;47.848;9.000;2023-01-29T09:15:11;96708.41;;;-0.07;97.68
56038;BME280;41907;47.848;9.000;2023-01-29T09:17:36;96712.84;;;-0.08;96.33
56038;BME280;41907;47.848;9.000;2023-01-29T09:20:02;96714.91;;;-0.10;95.48
56038;BME280;41907;47.848;9.000;2023-01-29T09:22:30;96711.31;;;-0.15;96.36
56038;BME280;41907;47.848;9.000;2023-01-29T09:24:55;96712.84;;;-0.08;96.54
56038;BME280;41907;47.848;9.000;2023-01-29T09:27:21;96712.38;;;-0.23;96.54
56038;BME280;41907;47.848;9.000;2023-01-29T09:29:46;96712.41;;;-0.05;96.88
56038;BME280;41907;47.848;9.000;2023-01-29T09:32:11;96713.34;;;0.01;96.75
56038;BME280;41907;47.848;9.000;2023-01-29T09:34:37;96708.47;;;-0.14;96.32
56038;BME280;41907;47.848;9.000;2023-01-29T09:37:02;96715.41;;;-0.01;95.79
56038;BME280;41907;47.848;9.000;2023-01-29T09:39:27;96716.06;;;-0.06;95.89
56038;BME280;41907;47.848;9.000;2023-01-29T09:42:24;96716.28;;;-0.32;95.98
56038;BME280;41907;47.848;9.000;2023-01-29T09:45:03;96723.78;;;-0.35;96.48
56038;BME280;41907;47.848;9.000;2023-01-29T09:47:32;96722.03;;;-0.42;96.48
56038;BME280;41907;47.848;9.000;2023-01-29T09:50:16;96719.66;;;-0.50;95.77
56038;BME280;41907;47.848;9.000;2023-01-29T09:52:55;96723.25;;;-0.44;95.81
56038;BME280;41907;47.848;9.000;2023-01-29T09:55:45;96729.94;;;-0.23;94.37
56038;BME280;41907;47.848;9.000;2023-01-29T10:04:09;96727.66;;;0.05;95.00
56038;BME280;41907;47.848;9.000;2023-01-29T10:14:48;96732.88;;;-0.13;96.88
56038;BME280;41907;47.848;9.000;2023-01-29T10:17:41;96734.84;;;0.10;96.04
56038;BME280;41907;47.848;9.000;2023-01-29T10:20:42;96740.09;;;0.10;95.89
56038;BME280;41907;47.848;9.000;2023-01-29T10:25:39;96741.88;;;0.16;95.94
56038;BME280;41907;47.848;9.000;2023-01-29T10:28:15;96726.78;;;0.29;94.47
56038;BME280;41907;47.848;9.000;2023-01-29T10:30:46;96736.66;;;0.34;94.62
56038;BME280;41907;47.848;9.000;2023-01-29T10:33:17;96734.03;;;0.52;94.67
56038;BME280;41907;47.848;9.000;2023-01-29T10:35:46;96727.06;;;0.58;93.73
56038;BME280;41907;47.848;9.000;2023-01-29T10:40:59;96716.31;;;0.66;93.45
56038;BME280;41907;47.848;9.000;2023-01-29T10:55:23;96708.41;;;0.48;92.93
56038;BME280;41907;47.848;9.000;2023-01-29T11:00:30;96704.72;;;0.37;93.63
56038;BME280;41907;47.848;9.000;2023-01-29T11:03:12;96696.06;;;0.36;93.75
56038;BME280;41907;47.848;9.000;2023-01-29T11:05:44;96695.66;;;0.51;93.33
56038;BME280;41907;47.848;9.000;2023-01-29T11:08:15;96690.88;;;0.30;93.90
56038;BME280;41907;47.848;9.000;2023-01-29T11:11:06;96695.69;;;0.33;94.81
56038;BME280;41907;47.848;9.000;2023-01-29T11:13:40;96682.81;;;0.61;95.13
56038;BME280;41907;47.848;9.000;2023-01-29T11:16:08;96672.00;;;0.69;94.13
56038;BME280;41907;47.848;9.000;2023-01-29T11:18:56;96671.81;;;1.01;92.64
56038;BME280;41907;47.848;9.000;2023-01-29T11:21:23;96675.09;;;0.96;91.07
56038;BME280;41907;47.848;9.000;2023-01-29T11:23:49;96673.53;;;0.77;90.94
56038;BME280;41907;47.848;9.000;2023-01-29T11:26:20;96666.19;;;0.97;90.56
56038;BME280;41907;47.848;9.000;2023-01-29T11:28:50;96664.31;;;0.86;90.22
56038;BME280;41907;47.848;9.000;2023-01-29T11:31:25;96661.94;;;0.85;90.80
56038;BME280;41907;47.848;9.000;2023-01-29T11:34:01;96669.66;;;0.80;91.19
56038;BME280;41907;47.848;9.000;2023-01-29T11:36:31;96664.72;;;1.01;90.26
56038;BME280;41907;47.848;9.000;2023-01-29T11:39:12;96662.09;;;1.01;90.49
56038;BME280;41907;47.848;9.000;2023-01-29T11:42:02;96671.22;;;0.69;89.97
56038;BME280;41907;47.848;9.000;2023-01-29T11:44:40;96670.09;;;0.28;92.13
56038;BME280;41907;47.848;9.000;2023-01-29T11:49:53;96667.53;;;0.40;93.08
56038;BME280;41907;47.848;9.000;2023-01-29T11:52:37;96660.28;;;0.72;91.77
56038;BME280;41907;47.848;9.000;2023-01-29T11:55:25;96665.31;;;0.73;91.61
56038;BME280;41907;47.848;9.000;2023-01-29T12:00:23;96665.84;;;0.94;89.81
56038;BME280;41907;47.848;9.000;2023-01-29T12:05:53;96669.31;;;0.46;92.01
56038;BME280;41907;47.848;9.000;2023-01-29T12:08:19;96670.03;;;0.35;93.02
56038;BME280;41907;47.848;9.000;2023-01-29T12:10:47;96666.88;;;0.45;92.42
56038;BME280;41907;47.848;9.000;2023-01-29T12:15:41;96662.81;;;0.30;92.70
56038;BME280;41907;47.848;9.000;2023-01-29T12:20:43;96661.28;;;0.23;94.14
56038;BME280;41907;47.848;9.000;2023-01-29T12:23:35;96659.47;;;0.23;94.39
56038;BME280;41907;47.848;9.000;2023-01-29T12:26:14;96650.16;;;0.27;95.00
56038;BME280;41907;47.848;9.000;2023-01-29T12:31:43;96646.56;;;0.70;92.29
56038;BME280;41907;47.848;9.000;2023-01-29T12:34:31;96645.22;;;0.49;92.87
56038;BME280;41907;47.848;9.000;2023-01-29T12:39:52;96647.59;;;0.69;92.89
56038;BME280;41907;47.848;9.000;2023-01-29T12:42:20;96645.75;;;0.69;92.70
56038;BME280;41907;47.848;9.000;2023-01-29T12:44:58;96647.09;;;0.60;92.33
56038;BME280;41907;47.848;9.000;2023-01-29T12:47:35;96644.75;;;0.70;92.62
56038;BME280;41907;47.848;9.000;2023-01-29T12:50:09;96639.59;;;0.75;90.87
56038;BME280;41907;47.848;9.000;2023-01-29T12:55:20;96623.09;;;0.75;90.50
56038;BME280;41907;47.848;9.000;2023-01-29T12:57:55;96613.94;;;0.66;90.47
56038;BME280;41907;47.848;9.000;2023-01-29T13:00:35;96613.22;;;0.41;91.88
56038;BME280;41907;47.848;9.000;2023-01-29T13:03:52;96604.19;;;0.55;91.29
56038;BME280;41907;47.848;9.000;2023-01-29T13:05:55;96607.44;;;0.50;91.43
56038;BME280;41907;47.848;9.000;2023-01-29T13:08:28;96609.22;;;0.68;91.35
56038;BME280;41907;47.848;9.000;2023-01-29T13:10:57;96594.00;;;0.88;90.84
56038;BME280;41907;47.848;9.000;2023-01-29T13:15:51;96596.34;;;1.20;90.99
56038;BME280;41907;47.848;9.000;2023-01-29T13:21:05;96588.81;;;1.46;88.10
56038;BME280;41907;47.848;9.000;2023-01-29T13:24:01;96593.63;;;1.49;87.63
56038;BME280;41907;47.848;9.000;2023-01-29T13:26:25;96584.34;;;1.47;87.50
56038;BME280;41907;47.848;9.000;2023-01-29T13:28:51;96580.03;;;1.41;86.65
56038;BME280;41907;47.848;9.000;2023-01-29T13:34:15;96578.66;;;0.73;89.29
56038;BME280;41907;47.848;9.000;2023-01-29T13:36:44;96580.88;;;0.47;90.42
56038;BME280;41907;47.848;9.000;2023-01-29T13:41:51;96573.81;;;1.00;91.38
56038;BME280;41907;47.848;9.000;2023-01-29T13:44:27;96579.88;;;1.24;90.45
56038;BME280;41907;47.848;9.000;2023-01-29T13:49:29;96573.72;;;1.42;89.85
56038;BME280;41907;47.848;9.000;2023-01-29T13:51:58;96569.25;;;1.42;89.62
56038;BME280;41907;47.848;9.000;2023-01-29T13:54:38;96561.84;;;1.39;88.58
56038;BME280;41907;47.848;9.000;2023-01-29T13:57:03;96562.06;;;1.38;89.17
56038;BME280;41907;47.848;9.000;2023-01-29T13:59:50;96553.97;;;1.39;90.00
56038;BME280;41907;47.848;9.000;2023-01-29T14:02:20;96556.38;;;1.41;89.36
56038;BME280;41907;47.848;9.000;2023-01-29T14:04:45;96549.03;;;1.20;89.56
56038;BME280;41907;47.848;9.000;2023-01-29T14:10:16;96539.78;;;1.29;88.38
56038;BME280;41907;47.848;9.000;2023-01-29T14:12:43;96545.59;;;1.07;90.89
56038;BME280;41907;47.848;9.000;2023-01-29T14:15:26;96540.34;;;1.07;91.11
56038;BME280;41907;47.848;9.000;2023-01-29T14:23:06;96521.03;;;1.37;88.52
56038;BME280;41907;47.848;9.000;2023-01-29T14:25:37;96522.53;;;1.33;88.08
56038;BME280;41907;47.848;9.000;2023-01-29T14:28:13;96527.47;;;1.41;88.92
56038;BME280;41907;47.848;9.000;2023-01-29T14:30:46;96523.00;;;1.41;88.33
56038;BME280;41907;47.848;9.000;2023-01-29T14:35:51;96523.00;;;1.18;88.68
56038;BME280;41907;47.848;9.000;2023-01-29T14:38:17;96517.38;;;1.26;88.71
56038;BME280;41907;47.848;9.000;2023-01-29T14:40:44;96506.22;;;1.31;89.16
56038;BME280;41907;47.848;9.000;2023-01-29T14:43:20;96513.63;;;1.34;88.47
56038;BME280;41907;47.848;9.000;2023-01-29T14:45:49;96525.72;;;1.35;89.02
56038;BME280;41907;47.848;9.000;2023-01-29T14:48:19;96532.25;;;1.21;89.00
56038;BME280;41907;47.848;9.000;2023-01-29T14:51:09;96530.88;;;1.18;90.37
56038;BME280;41907;47.848;9.000;2023-01-29T14:53:49;96550.75;;;1.26;90.22
56038;BME280;41907;47.848;9.000;2023-01-29T14:56:23;96542.28;;;1.24;89.77
56038;BME280;41907;47.848;9.000;2023-01-29T15:01:37;96547.31;;;1.37;89.24
56038;BME280;41907;47.848;9.000;2023-01-29T15:04:24;96551.69;;;1.31;89.09
56038;BME280;41907;47.848;9.000;2023-01-29T15:06:56;96550.97;;;1.24;89.81
56038;BME280;41907;47.848;9.000;2023-01-29T15:10:05;96559.22;;;1.28;88.99
56038;BME280;41907;47.848;9.000;2023-01-29T15:16:05;96558.28;;;0.99;90.54
56038;BME280;41907;47.848;9.000;2023-01-29T15:18:08;96561.69;;;0.99;91.04
56038;BME280;41907;47.848;9.000;2023-01-29T15:20:39;96555.03;;;0.85;91.07
56038;BME280;41907;47.848;9.000;2023-01-29T15:25:50;96549.34;;;0.88;90.97
56038;BME280;41907;47.848;9.000;2023-01-29T15:28:16;96553.13;;;0.92;90.52
56038;BME280;41907;47.848;9.000;2023-01-29T15:30:42;96552.13;;;0.93;90.85